Time;durP1;ratioP1;P1;durP2;ratioP2;P2;SDS_P1;SDS_P2;PMS_P1;PMS_P2;Temp;Humidity;BMP_temperature;BMP_pressure;BME280_temperature;BME280_humidity;BME280_pressure;Samples;Min_cycle;Max_cycle;Signal;HPM_P1;HPM_P2
2023/06/13 00:01:57;;;;;;;182.38;66.13;;;;;;;21.93;52.83;101714.25;5015597;28;20022;-71
2023/06/13 00:04:23;;;;;;;187.35;67.15;;;;;;;21.93;53.05;101708.91;5009372;28;20479;-71
2023/06/13 00:06:53;;;;;;;180.70;67.18;;;;;;;21.93;53.44;101708.91;5011154;28;20029;-71
2023/06/13 00:09:18;;;;;;;179.27;65.18;;;;;;;21.93;53.17;101708.91;5017037;28;20034;-69
2023/06/13 00:11:46;;;;;;;187.30;66.88;;;;;;;21.94;53.28;101714.16;5011864;28;20026;-70
2023/06/13 00:14:12;;;;;;;201.18;71.05;;;;;;;21.94;52.95;101700.00;4993156;28;20472;-69
2023/06/13 00:16:38;;;;;;;180.77;66.03;;;;;;;21.95;53.30;101701.72;5003394;28;20034;-72
2023/06/13 00:19:04;;;;;;;182.18;66.00;;;;;;;21.97;52.26;101701.66;5010957;28;20026;-70
2023/06/13 00:21:32;;;;;;;178.80;66.65;;;;;;;21.97;53.39;101699.00;5000105;28;20025;-71
2023/06/13 00:23:57;;;;;;;184.60;65.40;;;;;;;21.98;52.93;101698.94;5047320;22;20071;-74
2023/06/13 00:26:23;;;;;;;187.52;64.75;;;;;;;21.98;53.51;101693.63;5031955;28;20039;-72
2023/06/13 00:28:48;;;;;;;184.95;66.97;;;;;;;21.99;53.38;101692.69;5046674;28;20556;-72
2023/06/13 00:31:13;;;;;;;179.13;67.75;;;;;;;21.99;53.28;101690.03;5031611;28;20075;-72
2023/06/13 00:33:43;;;;;;;182.02;66.70;;;;;;;22.01;52.94;101687.28;5024232;28;20083;-76
2023/06/13 00:36:09;;;;;;;175.98;66.20;;;;;;;22.00;53.24;101683.75;5022433;28;20018;-72
2023/06/13 00:38:34;;;;;;;183.50;66.57;;;;;;;22.01;52.82;101690.78;5027909;28;20029;-73
2023/06/13 00:41:00;;;;;;;178.77;67.75;;;;;;;22.00;53.20;101678.44;5029236;28;20400;-73
2023/06/13 00:43:27;;;;;;;184.45;65.72;;;;;;;22.02;53.42;101687.22;5030242;28;20132;-74
2023/06/13 00:45:53;;;;;;;184.20;67.50;;;;;;;22.01;53.15;101685.47;5027576;28;20065;-73
2023/06/13 00:48:19;;;;;;;179.32;66.20;;;;;;;22.02;53.17;101684.53;5013945;28;20041;-72
2023/06/13 00:50:45;;;;;;;179.95;64.78;;;;;;;22.02;53.02;101681.88;5018559;28;20034;-72
2023/06/13 00:53:17;;;;;;;180.27;66.38;;;;;;;22.04;53.27;101687.13;5009460;28;20029;-72
2023/06/13 00:55:44;;;;;;;182.63;66.50;;;;;;;22.04;53.65;101687.13;5024832;28;20066;-73
2023/06/13 00:58:10;;;;;;;178.45;65.95;;;;;;;22.02;53.55;101681.88;5030693;28;20083;-73
2023/06/13 01:00:37;;;;;;;181.73;68.10;;;;;;;22.03;53.09;101680.97;5033999;28;20033;-72
2023/06/13 01:03:07;;;;;;;180.60;66.85;;;;;;;22.03;53.65;101678.28;5028226;28;20040;-73
2023/06/13 01:05:38;;;;;;;201.10;70.70;;;;;;;22.05;53.32;101679.06;5023318;28;20024;-73
2023/06/13 01:08:07;;;;;;;180.20;65.13;;;;;;;22.04;53.38;101677.34;5028474;28;20056;-73
2023/06/13 01:10:33;;;;;;;174.40;65.30;;;;;;;22.05;53.23;101676.41;5024610;28;20062;-73
2023/06/13 01:13:13;;;;;;;179.40;66.95;;;;;;;22.05;53.10;101675.56;5043309;28;20030;-73
2023/06/13 01:16:06;;;;;;;195.43;68.07;;;;;;;22.04;53.25;101672.00;5019267;28;20101;-73
2023/06/13 01:18:35;;;;;;;179.73;67.25;;;;;;;22.04;54.07;101673.81;5017966;28;20037;-73
2023/06/13 01:21:00;;;;;;;177.82;66.03;;;;;;;22.03;53.39;101672.97;5028044;28;20540;-73
2023/06/13 01:23:49;;;;;;;179.20;66.10;;;;;;;22.05;53.69;101667.56;5019014;28;20120;-72
2023/06/13 01:26:51;;;;;;;178.50;65.65;;;;;;;22.05;53.74;101671.09;5015504;28;20018;-73
2023/06/13 01:29:17;;;;;;;181.27;67.13;;;;;;;22.04;53.53;101665.84;5023478;28;20025;-73
2023/06/13 01:31:44;;;;;;;182.55;68.25;;;;;;;22.05;53.60;101673.75;5013783;28;20038;-73
2023/06/13 01:34:10;;;;;;;195.70;69.35;;;;;;;22.05;53.68;101667.56;5024370;28;20018;-73
2023/06/13 01:36:35;;;;;;;181.45;68.60;;;;;;;22.06;53.32;101666.63;5023434;28;20026;-73
2023/06/13 01:39:01;;;;;;;181.43;67.28;;;;;;;22.05;53.16;101664.91;5030604;28;20033;-73
2023/06/13 01:41:26;;;;;;;179.40;66.35;;;;;;;22.04;52.73;101661.38;5020536;28;20060;-72
2023/06/13 01:43:51;;;;;;;175.30;65.78;;;;;;;22.03;53.33;101657.00;5026353;28;20025;-72
2023/06/13 01:46:28;;;;;;;177.30;65.40;;;;;;;22.03;53.28;101656.13;5027781;28;20060;-73
2023/06/13 01:49:16;;;;;;;184.93;66.68;;;;;;;22.03;53.73;101662.34;5033276;28;20032;-74
2023/06/13 01:51:55;;;;;;;192.98;67.65;;;;;;;22.02;53.54;101660.59;5014779;28;20026;-73
2023/06/13 01:54:22;;;;;;;196.88;68.22;;;;;;;22.01;52.90;101666.84;5022468;28;20108;-73
2023/06/13 01:56:55;;;;;;;180.63;65.85;;;;;;;22.01;52.60;101664.19;5009183;28;20026;-74
2023/06/13 01:59:25;;;;;;;184.45;66.60;;;;;;;22.00;53.33;101654.47;5032064;28;20079;-73
2023/06/13 02:01:50;;;;;;;181.48;66.30;;;;;;;22.00;53.34;101659.81;5012117;28;20022;-72
2023/06/13 02:04:16;;;;;;;201.25;72.50;;;;;;;22.00;52.92;101657.13;5025765;28;20032;-73
2023/06/13 02:06:41;;;;;;;176.52;66.57;;;;;;;22.01;53.21;101658.03;5015769;28;20040;-73
2023/06/13 02:09:06;;;;;;;181.85;68.13;;;;;;;22.00;53.09;101656.28;5032538;28;20020;-71
2023/06/13 02:11:32;;;;;;;180.93;68.05;;;;;;;22.00;52.65;101656.28;5020256;28;20108;-73
2023/06/13 02:13:57;;;;;;;183.57;69.38;;;;;;;22.00;53.24;101657.13;5015403;28;20029;-72
2023/06/13 02:16:25;;;;;;;193.73;69.28;;;;;;;22.00;53.41;101651.81;5016665;28;20034;-72
2023/06/13 02:18:53;;;;;;;197.60;69.25;;;;;;;22.00;53.21;101650.97;5011996;28;20033;-74
2023/06/13 02:21:19;;;;;;;177.80;65.65;;;;;;;21.99;53.16;101644.81;5025921;28;20102;-72
2023/06/13 02:23:44;;;;;;;181.07;66.75;;;;;;;21.99;52.86;101654.56;5030316;28;20109;-73
2023/06/13 02:26:10;;;;;;;187.93;66.75;;;;;;;21.99;53.44;101654.56;5027051;28;20057;-73
2023/06/13 02:28:35;;;;;;;177.80;65.70;;;;;;;21.99;53.75;101650.13;5028823;28;20064;-73
2023/06/13 02:31:00;;;;;;;187.45;68.30;;;;;;;21.98;53.01;101653.72;5022556;28;20054;-74
2023/06/13 02:33:30;;;;;;;180.20;68.05;;;;;;;21.98;53.60;101653.72;5019079;28;20036;-73
2023/06/13 02:35:55;;;;;;;178.48;66.78;;;;;;;21.98;53.52;101659.03;5029489;28;20061;-74
2023/06/13 02:38:20;;;;;;;182.27;68.18;;;;;;;21.99;53.90;101652.78;5015270;28;20049;-73
2023/06/13 02:40:46;;;;;;;180.00;65.50;;;;;;;22.00;54.04;101650.97;5026070;28;20065;-74
2023/06/13 02:43:11;;;;;;;177.93;65.93;;;;;;;21.98;54.08;101648.41;5032178;28;20479;-72
2023/06/13 02:45:36;;;;;;;179.40;66.78;;;;;;;21.98;53.51;101645.72;5023396;28;20084;-74
2023/06/13 02:48:02;;;;;;;179.85;68.45;;;;;;;21.97;53.50;101651.97;5022855;28;20037;-73
2023/06/13 02:50:27;;;;;;;176.05;66.10;;;;;;;21.99;53.86;101649.25;5027500;28;20072;-74
2023/06/13 02:52:52;;;;;;;178.98;66.80;;;;;;;21.98;54.01;101643.06;5023128;28;20040;-74
2023/06/13 02:55:18;;;;;;;179.18;66.55;;;;;;;21.99;54.11;101650.13;5018875;28;20494;-73
2023/06/13 02:57:43;;;;;;;177.02;66.28;;;;;;;21.99;54.35;101654.56;5020272;28;20464;-73
2023/06/13 03:00:11;;;;;;;183.02;67.28;;;;;;;21.99;54.30;101655.44;5027525;28;20025;-72
2023/06/13 03:02:39;;;;;;;175.60;64.72;;;;;;;21.99;54.05;101639.47;5021474;28;20030;-73
2023/06/13 03:05:07;;;;;;;178.55;65.00;;;;;;;22.00;54.01;101646.50;5026754;28;20033;-74
2023/06/13 03:07:33;;;;;;;183.45;67.28;;;;;;;22.01;53.82;101647.38;5024215;28;20399;-73
2023/06/13 03:10:06;;;;;;;180.05;67.28;;;;;;;21.99;54.58;101651.91;5027838;28;20068;-73
2023/06/13 03:12:31;;;;;;;176.68;64.75;;;;;;;22.00;54.55;101651.81;5027598;28;20026;-73
2023/06/13 03:14:56;;;;;;;188.93;67.15;;;;;;;22.00;54.85;101654.47;5011889;28;20036;-73
2023/06/13 03:17:22;;;;;;;180.38;67.28;;;;;;;22.00;54.39;101651.81;5028454;28;20076;-73
2023/06/13 03:19:48;;;;;;;186.35;67.07;;;;;;;22.00;54.36;101657.13;5025044;28;20026;-73
2023/06/13 03:22:14;;;;;;;180.35;67.40;;;;;;;21.99;54.15;101658.09;5024315;28;20071;-73
2023/06/13 03:24:44;;;;;;;185.65;66.63;;;;;;;21.98;54.23;101653.72;5012172;28;20116;-74
2023/06/13 03:27:12;;;;;;;177.15;65.63;;;;;;;22.00;54.15;101651.81;5009710;28;20025;-74
2023/06/13 03:29:41;;;;;;;194.13;67.63;;;;;;;21.99;54.55;101649.25;5012355;28;20029;-75
2023/06/13 03:32:08;;;;;;;186.60;67.18;;;;;;;21.98;54.32;101645.72;5022393;28;20482;-74
2023/06/13 03:34:37;;;;;;;189.70;69.50;;;;;;;21.99;54.13;101655.44;5024889;28;20112;-75
2023/06/13 03:37:07;;;;;;;190.30;69.55;;;;;;;21.99;53.88;101652.78;5025817;28;20029;-74
2023/06/13 03:39:32;;;;;;;173.02;65.65;;;;;;;22.00;53.96;101650.97;5017297;28;20028;-75
2023/06/13 03:41:58;;;;;;;182.38;66.13;;;;;;;22.01;54.36;101647.38;5020822;28;20021;-74
2023/06/13 03:44:23;;;;;;;187.98;68.75;;;;;;;21.99;54.30;101650.13;5021999;28;20037;-75
2023/06/13 03:46:49;;;;;;;178.38;65.97;;;;;;;22.01;54.42;101658.03;5011554;28;20022;-74
2023/06/13 03:49:14;;;;;;;178.52;66.30;;;;;;;22.00;54.07;101657.13;5026862;28;20033;-74
2023/06/13 03:51:41;;;;;;;179.02;66.82;;;;;;;22.00;54.19;101654.47;5040049;28;20043;-74
2023/06/13 03:54:06;;;;;;;175.65;65.22;;;;;;;22.00;54.02;101658.94;5027645;28;20025;-74
2023/06/13 03:56:32;;;;;;;185.30;67.88;;;;;;;21.99;54.29;101655.44;5034010;28;20125;-73
2023/06/13 03:58:57;;;;;;;182.40;65.93;;;;;;;22.00;53.68;101649.16;5031610;28;20114;-73
2023/06/13 04:01:24;;;;;;;182.50;66.28;;;;;;;22.02;54.66;101655.28;5019021;28;20112;-74
2023/06/13 04:03:49;;;;;;;188.23;68.13;;;;;;;21.99;54.10;101652.78;5025377;28;20494;-74
2023/06/13 04:06:15;;;;;;;184.30;68.40;;;;;;;22.00;53.88;101657.13;5028636;28;20024;-74
2023/06/13 04:08:40;;;;;;;185.75;66.28;;;;;;;21.99;53.82;101652.78;5024694;28;20114;-74
2023/06/13 04:11:06;;;;;;;179.48;64.93;;;;;;;22.01;53.78;101658.88;5022602;28;20017;-73
2023/06/13 04:13:31;;;;;;;177.57;65.88;;;;;;;22.01;54.24;101653.56;5027868;28;20056;-74
2023/06/13 04:15:56;;;;;;;180.25;67.53;;;;;;;22.02;54.17;101652.63;5022532;28;20017;-74
2023/06/13 04:18:23;;;;;;;181.95;66.03;;;;;;;22.01;53.75;101648.22;5033475;28;20033;-73
2023/06/13 04:20:49;;;;;;;184.70;66.82;;;;;;;22.02;54.31;101652.63;5024709;28;20056;-74
2023/06/13 04:23:16;;;;;;;192.45;69.07;;;;;;;22.02;54.73;101644.66;5022546;28;20083;-74
2023/06/13 04:25:41;;;;;;;183.18;67.47;;;;;;;22.02;54.06;101649.97;5023394;28;20043;-74
2023/06/13 04:28:08;;;;;;;176.48;66.07;;;;;;;22.03;54.47;101649.03;5016404;28;20025;-74
2023/06/13 04:30:33;;;;;;;181.45;66.97;;;;;;;22.03;54.64;101645.50;5024665;28;20029;-73
2023/06/13 04:33:02;;;;;;;176.20;65.43;;;;;;;22.03;54.46;101641.06;5025548;28;20033;-74
2023/06/13 04:35:28;;;;;;;189.48;68.78;;;;;;;22.01;54.62;101642.91;5008732;28;20030;-74
2023/06/13 04:37:53;;;;;;;181.40;66.40;;;;;;;22.04;54.75;101641.91;5025461;28;20079;-74
2023/06/13 04:40:18;;;;;;;179.52;66.78;;;;;;;22.03;54.58;101642.84;5012926;28;20108;-74
2023/06/13 04:42:47;;;;;;;177.55;65.10;;;;;;;22.03;54.53;101643.72;5005844;28;20113;-74
2023/06/13 04:45:13;;;;;;;178.95;66.10;;;;;;;22.00;54.69;101641.19;5029051;28;20017;-74
2023/06/13 04:47:39;;;;;;;176.27;66.03;;;;;;;22.04;54.00;101642.75;5020384;28;20026;-74
2023/06/13 04:50:06;;;;;;;176.38;66.03;;;;;;;22.03;54.46;101638.41;5011009;28;20080;-75
2023/06/13 04:52:34;;;;;;;180.23;66.22;;;;;;;22.01;54.58;101642.91;5012173;28;20079;-74
2023/06/13 04:55:03;;;;;;;179.00;66.32;;;;;;;22.04;54.50;101632.13;5010724;28;20026;-75
2023/06/13 04:57:28;;;;;;;177.98;64.95;;;;;;;22.04;54.57;101637.44;5017887;28;20482;-74
2023/06/13 04:59:55;;;;;;;176.23;66.28;;;;;;;22.04;54.62;101632.13;5027927;28;20113;-74
2023/06/13 05:02:22;;;;;;;182.30;67.43;;;;;;;22.05;54.60;101639.16;5015308;28;20045;-74
2023/06/13 05:04:48;;;;;;;181.68;66.63;;;;;;;22.04;54.86;101632.13;5012927;28;20030;-74
2023/06/13 05:07:15;;;;;;;180.98;67.88;;;;;;;22.04;54.12;101632.13;5011574;28;20037;-74
2023/06/13 05:09:43;;;;;;;173.50;65.65;;;;;;;22.04;53.93;101632.13;5024540;28;20108;-74
2023/06/13 05:12:10;;;;;;;187.20;66.85;;;;;;;22.06;53.77;101632.03;5028776;28;20021;-73
2023/06/13 05:14:36;;;;;;;177.45;66.45;;;;;;;22.05;54.20;101641.81;5012692;28;20029;-74
2023/06/13 05:17:05;;;;;;;178.25;67.15;;;;;;;22.07;54.68;101642.63;5019501;28;20026;-72
2023/06/13 05:19:31;;;;;;;180.77;66.97;;;;;;;22.08;53.92;101648.78;5022677;28;20030;-74
2023/06/13 05:21:56;;;;;;;184.40;67.00;;;;;;;22.08;54.72;101646.13;5015344;28;20052;-74
2023/06/13 05:24:22;;;;;;;184.15;64.95;;;;;;;22.09;54.63;101640.72;5020743;28;20022;-73
2023/06/13 05:26:47;;;;;;;180.98;67.10;;;;;;;22.09;54.44;101650.53;5015423;28;20034;-73
2023/06/13 05:29:13;;;;;;;180.82;67.22;;;;;;;22.10;53.92;101646.91;5014999;28;20026;-73
2023/06/13 05:31:38;;;;;;;180.88;67.53;;;;;;;22.09;54.15;101646.06;5011491;28;20018;-73
2023/06/13 05:34:03;;;;;;;186.90;68.20;;;;;;;22.09;53.95;101647.88;5013384;28;20438;-74
2023/06/13 05:36:29;;;;;;;178.75;66.03;;;;;;;22.10;54.19;101650.44;5016840;28;20419;-73
2023/06/13 05:38:55;;;;;;;180.00;67.13;;;;;;;22.11;53.50;101638.00;5028834;28;20112;-73
2023/06/13 05:41:21;;;;;;;179.75;66.35;;;;;;;22.11;54.30;101645.97;5030267;28;20111;-73
2023/06/13 05:43:47;;;;;;;181.10;67.75;;;;;;;22.11;53.65;101641.53;5025350;28;20053;-73
2023/06/13 05:46:13;;;;;;;176.60;66.15;;;;;;;22.12;53.91;101642.38;5030078;28;20040;-74
2023/06/13 05:48:39;;;;;;;179.65;66.20;;;;;;;22.12;54.22;101634.41;5030911;28;20140;-73
2023/06/13 05:51:05;;;;;;;175.32;66.45;;;;;;;22.10;53.63;101629.16;5020935;28;20502;-73
2023/06/13 05:53:30;;;;;;;179.85;65.72;;;;;;;22.12;53.47;101634.41;5030612;28;20053;-73
2023/06/13 05:55:56;;;;;;;173.20;65.82;;;;;;;22.12;53.58;101634.41;5014531;28;20516;-73
2023/06/13 05:58:21;;;;;;;181.10;66.25;;;;;;;22.15;53.05;101633.38;5013442;28;20036;-74
2023/06/13 06:00:46;;;;;;;178.50;65.28;;;;;;;22.15;52.01;101633.38;5013400;28;20026;-74
2023/06/13 06:03:13;;;;;;;181.98;66.63;;;;;;;22.16;52.12;101632.47;5028465;28;20028;-73
2023/06/13 06:05:39;;;;;;;180.13;66.05;;;;;;;22.18;51.52;101638.56;5015803;28;20018;-74
2023/06/13 06:08:05;;;;;;;179.43;66.18;;;;;;;22.20;51.95;101634.03;5013429;28;20037;-74
2023/06/13 06:10:30;;;;;;;174.63;64.97;;;;;;;22.20;51.47;101631.38;5025298;28;20029;-73
2023/06/13 06:12:56;;;;;;;179.55;65.25;;;;;;;22.23;51.13;101632.06;5032957;28;20445;-74
2023/06/13 06:15:21;;;;;;;178.20;66.00;;;;;;;22.27;51.21;101627.44;5014170;28;20032;-73
2023/06/13 06:17:46;;;;;;;187.13;67.63;;;;;;;22.30;51.22;101627.28;5013240;28;20541;-74
2023/06/13 06:20:12;;;;;;;184.18;67.60;;;;;;;22.42;49.97;101632.00;5024791;28;20478;-73
2023/06/13 06:22:38;;;;;;;207.68;72.05;;;;;;;22.60;49.42;101629.34;5043138;22;20351;-71
2023/06/13 06:25:03;;;;;;;182.60;65.60;;;;;;;22.75;49.02;101628.53;5041894;28;20468;-71
2023/06/13 06:27:29;;;;;;;178.93;65.10;;;;;;;22.89;48.92;101626.94;5036127;28;20025;-72
2023/06/13 06:29:54;;;;;;;180.77;67.93;;;;;;;23.00;48.54;101621.91;5030210;28;20030;-72
2023/06/13 06:32:20;;;;;;;176.65;67.53;;;;;;;23.13;48.98;101622.97;5036280;28;20021;-71
2023/06/13 06:34:46;;;;;;;184.52;69.15;;;;;;;23.24;49.40;101618.88;5032222;28;20025;-71
2023/06/13 06:37:13;;;;;;;190.82;69.43;;;;;;;23.36;48.04;101612.84;5020154;28;20046;-71
2023/06/13 06:39:39;;;;;;;188.00;70.20;;;;;;;23.50;48.92;101616.56;5003412;28;20465;-71
2023/06/13 06:42:04;;;;;;;184.60;67.97;;;;;;;23.62;48.13;101615.88;4999015;28;20112;-71
2023/06/13 06:44:29;;;;;;;196.98;70.10;;;;;;;23.79;48.45;101615.75;5010818;28;20033;-72
2023/06/13 06:46:55;;;;;;;195.35;68.70;;;;;;;23.96;47.88;101604.13;5019396;28;20064;-72
2023/06/13 06:49:20;;;;;;;182.68;68.15;;;;;;;24.14;47.24;101607.50;5018029;28;20018;-73
2023/06/13 06:51:46;;;;;;;181.95;66.53;;;;;;;24.38;47.50;101611.47;5020252;28;20029;-73
2023/06/13 06:54:11;;;;;;;187.32;67.75;;;;;;;24.64;43.13;101604.63;5016250;28;20533;-72
2023/06/13 06:56:36;;;;;;;188.75;69.80;;;;;;;25.06;43.33;101613.56;5011682;28;20028;-71
2023/06/13 06:59:03;;;;;;;187.65;68.72;;;;;;;25.41;39.50;101607.81;5033200;28;20082;-69
2023/06/13 07:01:28;;;;;;;182.52;67.05;;;;;;;25.92;39.91;101611.63;5019355;28;20021;-69
2023/06/13 07:03:53;;;;;;;184.80;67.35;;;;;;;26.45;38.41;101593.78;4995546;28;20107;-71
2023/06/13 07:06:19;;;;;;;184.93;67.82;;;;;;;26.96;36.87;101605.47;5027532;28;20080;-71
2023/06/13 07:08:44;;;;;;;189.23;68.28;;;;;;;27.56;35.84;101605.66;5011299;28;20116;-71
2023/06/13 07:11:10;;;;;;;187.85;68.55;;;;;;;28.12;34.45;101605.91;5012501;28;20033;-78
2023/06/13 07:13:35;;;;;;;185.07;68.03;;;;;;;28.65;32.27;101610.81;5011454;28;20034;-73
2023/06/13 07:16:01;;;;;;;190.23;68.85;;;;;;;29.23;31.41;101603.56;5010840;28;20092;-71
2023/06/13 07:18:29;;;;;;;187.98;68.82;;;;;;;29.47;31.83;101609.66;5015005;28;20336;-72
2023/06/13 07:20:54;;;;;;;184.13;71.43;;;;;;;30.12;28.36;101589.94;5005524;28;20555;-73
2023/06/13 07:23:20;;;;;;;183.63;68.53;;;;;;;30.68;27.17;101596.84;5028568;28;20428;-72
2023/06/13 07:25:45;;;;;;;186.32;69.55;;;;;;;30.97;27.12;101598.78;5021428;28;20045;-72
2023/06/13 07:28:11;;;;;;;183.95;70.97;;;;;;;31.43;26.65;101597.38;5030846;28;20033;-72
2023/06/13 07:30:36;;;;;;;177.65;69.53;;;;;;;31.70;25.98;101593.16;5027380;28;20021;-72
2023/06/13 07:33:01;;;;;;;196.65;71.53;;;;;;;31.77;27.70;101594.28;5030017;28;20026;-72
2023/06/13 07:35:27;;;;;;;186.43;70.25;;;;;;;31.93;27.32;101587.44;5011890;28;20101;-71
2023/06/13 07:37:53;;;;;;;181.68;68.75;;;;;;;32.19;26.64;101583.19;4999886;28;20034;-71
2023/06/13 07:40:20;;;;;;;193.52;71.75;;;;;;;32.41;27.09;101578.44;5026414;28;20022;-71
2023/06/13 07:42:45;;;;;;;195.00;72.90;;;;;;;32.71;26.47;101581.91;5009757;28;20107;-71
2023/06/13 07:45:10;;;;;;;191.05;71.40;;;;;;;32.78;27.24;101588.44;5010584;28;20080;-71
2023/06/13 07:47:36;;;;;;;193.25;72.15;;;;;;;32.79;24.27;101568.50;5011702;28;20077;-71
2023/06/13 07:50:01;;;;;;;185.82;72.10;;;;;;;32.97;26.49;101576.66;5011835;28;20083;-70
